Time;durP1;ratioP1;P1;durP2;ratioP2;P2;SDS_P1;SDS_P2;PMS_P1;PMS_P2;Temp;Humidity;BMP_temperature;BMP_pressure;BME280_temperature;BME280_humidity;BME280_pressure;Samples;Min_cycle;Max_cycle;Signal;HPM_P1;HPM_P2
2024/01/25 00:00:20;;;;;;;21.50;4.13;;;;;;;13.33;46.81;101985.75;671937;29;1653;-85
2024/01/25 00:00:41;;;;;;;15.05;3.47;;;;;;;13.23;46.78;101986.28;674605;29;1279;-84
2024/01/25 00:01:02;;;;;;;9.73;3.53;;;;;;;13.22;47.08;101981.88;674217;29;1533;-83
2024/01/25 00:01:23;;;;;;;11.70;3.47;;;;;;;13.29;46.86;101991.75;674727;29;737;-84
2024/01/25 00:01:44;;;;;;;13.50;3.72;;;;;;;13.32;46.96;101993.59;674736;29;903;-84
2024/01/25 00:02:04;;;;;;;14.43;3.58;;;;;;;13.18;47.31;101979.94;672614;29;1463;-85
2024/01/25 00:02:25;;;;;;;10.00;3.13;;;;;;;13.21;47.47;101990.56;675087;29;1126;-86
2024/01/25 00:02:45;;;;;;;13.80;3.03;;;;;;;13.17;47.17;101989.56;677752;29;857;-84
2024/01/25 00:03:06;;;;;;;16.50;3.27;;;;;;;13.29;47.18;101999.59;677587;29;1470;-85
2024/01/25 00:03:27;;;;;;;16.10;3.60;;;;;;;13.20;47.04;101992.28;682498;29;1001;-85
2024/01/25 00:03:47;;;;;;;12.88;3.78;;;;;;;13.20;47.57;101983.56;682463;29;1294;-84
2024/01/25 00:04:08;;;;;;;12.63;3.50;;;;;;;13.23;47.26;101991.50;683613;28;1442;-84
2024/01/25 00:04:29;;;;;;;13.43;4.10;;;;;;;13.22;47.41;101992.34;682361;29;1292;-85
2024/01/25 00:04:49;;;;;;;18.50;3.85;;;;;;;13.21;47.26;101995.81;683712;28;873;-85
2024/01/25 00:05:10;;;;;;;15.57;3.90;;;;;;;13.23;47.30;101995.03;679573;29;1543;-84
2024/01/25 00:05:31;;;;;;;13.90;3.00;;;;;;;13.26;47.06;101994.22;679926;29;1520;-85
2024/01/25 00:05:51;;;;;;;11.38;3.50;;;;;;;13.26;47.01;102000.38;679959;29;862;-85
2024/01/25 00:06:12;;;;;;;12.13;3.40;;;;;;;13.29;47.50;102000.47;679565;29;1464;-85
2024/01/25 00:06:33;;;;;;;13.18;3.50;;;;;;;13.28;46.95;102000.44;679770;29;1290;-84
2024/01/25 00:06:53;;;;;;;12.60;2.93;;;;;;;13.33;47.08;102009.34;682713;29;730;-83
2024/01/25 00:07:14;;;;;;;12.48;2.92;;;;;;;13.26;47.04;102000.38;676969;29;1545;-85
2024/01/25 00:07:34;;;;;;;16.57;3.00;;;;;;;13.22;46.88;102001.09;674721;29;1089;-85
2024/01/25 00:07:55;;;;;;;15.80;3.17;;;;;;;13.16;47.25;102000.91;679870;29;1257;-84
2024/01/25 00:08:16;;;;;;;14.45;3.25;;;;;;;13.07;47.61;102006.66;679005;29;1492;-85
2024/01/25 00:08:36;;;;;;;12.13;3.50;;;;;;;13.18;47.43;101985.19;676776;29;1359;-85
2024/01/25 00:08:57;;;;;;;11.77;3.50;;;;;;;13.20;47.44;101994.03;677355;29;832;-85
2024/01/25 00:09:17;;;;;;;11.55;3.70;;;;;;;13.16;47.54;101986.03;674279;29;1496;-85
2024/01/25 00:09:38;;;;;;;8.30;3.35;;;;;;;13.21;47.51;101991.44;677258;29;1086;-85
2024/01/25 00:09:59;;;;;;;12.57;3.90;;;;;;;13.20;47.50;101994.91;677076;29;737;-84
2024/01/25 00:10:19;;;;;;;11.93;3.35;;;;;;;13.24;47.34;101995.91;677187;29;1214;-85
2024/01/25 00:10:41;;;;;;;12.73;4.00;;;;;;;13.30;47.50;101996.16;677220;29;1270;-84
2024/01/25 00:11:02;;;;;;;9.35;3.80;;;;;;;13.30;46.92;102004.88;676924;29;1575;-84
2024/01/25 00:11:24;;;;;;;7.53;3.63;;;;;;;13.28;46.83;102008.31;677168;29;1386;-85
2024/01/25 00:11:45;;;;;;;8.82;3.40;;;;;;;13.29;47.42;101995.25;677305;29;841;-84
2024/01/25 00:12:06;;;;;;;10.53;3.53;;;;;;;13.22;47.13;101987.97;676921;29;1476;-85
2024/01/25 00:12:26;;;;;;;17.88;3.70;;;;;;;13.24;47.32;101991.59;674574;29;1259;-85
2024/01/25 00:12:46;;;;;;;19.38;4.20;;;;;;;13.29;47.15;101997.88;672260;29;1192;-84
2024/01/25 00:13:07;;;;;;;18.30;3.67;;;;;;;13.25;47.31;101998.59;677726;29;1574;-85
2024/01/25 00:13:28;;;;;;;11.77;3.70;;;;;;;13.27;47.08;101996.91;679896;29;988;-85
2024/01/25 00:13:48;;;;;;;14.82;4.00;;;;;;;13.28;47.32;101997.81;679850;29;827;-85
2024/01/25 00:14:09;;;;;;;17.10;4.20;;;;;;;13.29;47.11;102004.84;678264;29;1491;-84
2024/01/25 00:14:29;;;;;;;17.40;4.30;;;;;;;13.33;47.16;101998.00;674611;29;1106;-84
2024/01/25 00:14:52;;;;;;;13.67;3.80;;;;;;;13.29;46.99;102002.22;674775;29;762;-84
2024/01/25 00:15:12;;;;;;;13.13;3.67;;;;;;;13.24;47.30;102004.69;681202;28;1530;-84
2024/01/25 00:15:33;;;;;;;15.82;3.80;;;;;;;13.16;47.24;101998.28;679775;29;1225;-83
2024/01/25 00:15:53;;;;;;;18.13;4.10;;;;;;;13.19;47.45;101994.84;679959;29;891;-85
2024/01/25 00:16:14;;;;;;;22.90;4.20;;;;;;;13.20;47.86;101994.03;681577;28;1554;-84
2024/01/25 00:16:35;;;;;;;21.67;4.37;;;;;;;13.20;47.70;102007.13;677119;29;1351;-84
2024/01/25 00:16:55;;;;;;;18.20;4.30;;;;;;;13.33;47.27;102005.84;677364;29;745;-84
2024/01/25 00:17:16;;;;;;;11.07;3.65;;;;;;;13.25;47.57;101992.44;676917;29;1143;-85
2024/01/25 00:17:37;;;;;;;13.40;3.60;;;;;;;13.26;47.31;102000.38;679829;29;1116;-84
2024/01/25 00:17:57;;;;;;;12.55;3.38;;;;;;;13.28;47.32;101992.59;679850;29;1257;-85
2024/01/25 00:18:18;;;;;;;14.00;3.80;;;;;;;13.28;47.39;101998.69;679770;29;1563;-84
2024/01/25 00:18:38;;;;;;;12.03;3.77;;;;;;;13.23;47.39;101999.38;679189;29;1390;-84
2024/01/25 00:18:59;;;;;;;13.57;4.10;;;;;;;13.28;47.21;102011.81;672115;29;1200;-85
2024/01/25 00:19:20;;;;;;;10.07;4.20;;;;;;;13.27;47.25;102004.78;672031;29;1978;-85
2024/01/25 00:19:41;;;;;;;11.93;3.80;;;;;;;13.29;47.20;101999.59;674541;29;1501;-84
2024/01/25 00:20:02;;;;;;;13.85;3.70;;;;;;;13.32;47.07;101999.72;674270;29;1521;-84
2024/01/25 00:20:23;;;;;;;15.65;3.70;;;;;;;13.29;47.32;101999.59;674709;29;1160;-86
2024/01/25 00:20:44;;;;;;;13.52;3.67;;;;;;;13.26;47.31;101994.22;675190;29;952;-85
2024/01/25 00:21:04;;;;;;;9.68;2.97;;;;;;;13.29;47.11;102004.84;674748;29;1884;-85
2024/01/25 00:21:25;;;;;;;10.20;2.97;;;;;;;13.32;47.25;101999.72;677184;29;1155;-84
2024/01/25 00:21:45;;;;;;;8.73;2.78;;;;;;;13.34;46.88;102005.91;679934;29;1379;-84
2024/01/25 00:22:06;;;;;;;11.73;3.60;;;;;;;13.27;47.29;102001.28;676902;29;1548;-85
2024/01/25 00:22:27;;;;;;;11.35;3.70;;;;;;;13.29;47.08;101997.00;672052;29;1193;-85
2024/01/25 00:22:47;;;;;;;13.80;4.00;;;;;;;13.36;47.11;102001.63;674588;29;916;-84
2024/01/25 00:23:08;;;;;;;13.52;3.50;;;;;;;13.35;47.05;101993.69;676877;29;1613;-84
2024/01/25 00:23:29;;;;;;;10.83;3.03;;;;;;;13.34;47.05;101998.03;677227;29;1277;-85
2024/01/25 00:23:50;;;;;;;7.47;2.70;;;;;;;13.27;47.31;101990.81;677197;29;1305;-84
2024/01/25 00:24:14;;;;;;;5.23;2.40;;;;;;;13.24;47.26;102012.56;671562;29;1633;-85
2024/01/25 00:24:34;;;;;;;8.45;3.10;;;;;;;13.22;47.46;101997.59;677016;29;1270;-84
2024/01/25 00:24:55;;;;;;;9.88;3.30;;;;;;;13.26;47.13;101996.84;679815;29;1434;-84
2024/01/25 00:25:15;;;;;;;10.37;3.27;;;;;;;13.27;47.45;102003.91;676989;29;1490;-84
2024/01/25 00:25:36;;;;;;;13.57;3.85;;;;;;;13.16;47.37;101983.41;682434;28;1236;-84
2024/01/25 00:25:58;;;;;;;14.13;3.97;;;;;;;13.25;47.38;102005.56;677265;29;817;-84
2024/01/25 00:26:19;;;;;;;20.88;4.32;;;;;;;13.23;47.62;101996.75;679461;29;1744;-84
2024/01/25 00:26:40;;;;;;;20.87;3.40;;;;;;;13.27;47.21;102001.28;677256;29;1211;-85
2024/01/25 00:27:00;;;;;;;18.42;3.00;;;;;;;13.26;47.42;101995.13;674540;29;1516;-84
2024/01/25 00:27:21;;;;;;;15.20;2.43;;;;;;;13.28;47.44;102005.69;674674;29;1208;-83
2024/01/25 00:27:44;;;;;;;16.52;3.65;;;;;;;13.18;47.40;101998.31;674698;29;1197;-84
2024/01/25 00:28:05;;;;;;;20.80;3.90;;;;;;;13.26;47.26;102000.38;674223;29;1514;-84
2024/01/25 00:28:45;;;;;;;19.90;3.97;;;;;;;13.23;47.54;101999.38;674331;29;1121;-84
2024/01/25 00:29:06;;;;;;;28.00;4.82;;;;;;;13.08;47.96;101989.22;672670;29;1514;-85
2024/01/25 00:29:27;;;;;;;18.70;4.43;;;;;;;13.15;47.71;101986.88;677336;29;1092;-85
2024/01/25 00:29:47;;;;;;;10.35;3.88;;;;;;;13.21;47.63;101994.06;682546;29;1354;-84
2024/01/25 00:30:08;;;;;;;11.50;3.67;;;;;;;13.21;47.58;101998.44;681051;29;1607;-84
2024/01/25 00:30:29;;;;;;;14.63;4.07;;;;;;;13.24;47.46;101995.91;677213;29;1513;-84
2024/01/25 00:30:50;;;;;;;17.00;4.22;;;;;;;13.27;47.52;102001.28;677229;29;1109;-84
2024/01/25 00:31:10;;;;;;;14.20;4.13;;;;;;;13.27;47.48;102011.78;679149;29;1689;-85
2024/01/25 00:31:31;;;;;;;12.88;4.28;;;;;;;13.26;47.39;102002.09;674616;29;1286;-85
2024/01/25 00:31:52;;;;;;;10.45;4.07;;;;;;;13.29;47.34;101999.59;674614;29;967;-84
2024/01/25 00:32:12;;;;;;;12.27;3.80;;;;;;;13.28;47.29;102003.94;676812;29;1544;-84
2024/01/25 00:32:33;;;;;;;12.30;3.28;;;;;;;13.25;47.30;101997.69;677108;29;1402;-84
2024/01/25 00:32:53;;;;;;;13.27;3.58;;;;;;;13.25;47.43;102009.09;672035;29;1201;-84
2024/01/25 00:33:14;;;;;;;16.23;3.23;;;;;;;13.32;47.27;102012.81;671734;29;1596;-84
2024/01/25 00:33:35;;;;;;;17.05;3.42;;;;;;;13.31;47.35;102008.41;677122;29;1186;-84
2024/01/25 00:33:57;;;;;;;19.52;3.70;;;;;;;13.29;47.06;102000.47;677845;29;1201;-84
2024/01/25 00:34:18;;;;;;;21.35;4.00;;;;;;;13.28;47.45;101998.69;674265;29;1843;-84
2024/01/25 00:34:39;;;;;;;18.23;4.00;;;;;;;13.35;47.11;101993.69;671922;29;1294;-85
2024/01/25 00:35:00;;;;;;;14.68;3.15;;;;;;;13.34;47.17;102003.28;669501;29;824;-85
2024/01/25 00:35:20;;;;;;;11.23;3.10;;;;;;;13.24;47.28;102001.16;671727;29;1523;-84
2024/01/25 00:35:41;;;;;;;11.77;3.03;;;;;;;13.25;47.34;101995.06;672005;29;1102;-84
2024/01/25 00:36:02;;;;;;;13.38;3.58;;;;;;;13.29;47.22;102000.47;670559;29;1539;-85
2024/01/25 00:36:24;;;;;;;15.30;3.42;;;;;;;13.26;47.05;101989.00;670653;29;1371;-86
2024/01/25 00:36:45;;;;;;;12.20;3.13;;;;;;;13.27;47.09;101996.91;675229;29;1219;-84
2024/01/25 00:37:06;;;;;;;10.10;2.90;;;;;;;13.26;47.38;101999.47;673027;29;1485;-84
2024/01/25 00:37:27;;;;;;;11.10;3.38;;;;;;;13.27;47.49;102001.28;681054;29;1381;-84
2024/01/25 00:37:48;;;;;;;13.27;3.90;;;;;;;13.24;47.22;101994.19;679811;29;1460;-84
2024/01/25 00:38:09;;;;;;;14.60;3.85;;;;;;;13.22;47.57;102002.84;676881;29;1487;-85
2024/01/25 00:38:30;;;;;;;14.02;3.70;;;;;;;13.19;47.37;102002.72;678743;29;1247;-84
2024/01/25 00:38:51;;;;;;;11.63;3.28;;;;;;;13.23;47.45;102002.00;680914;29;1071;-84
2024/01/25 00:39:12;;;;;;;8.38;2.85;;;;;;;13.17;47.34;101997.44;676778;29;1438;-84
2024/01/25 00:39:33;;;;;;;8.93;3.35;;;;;;;13.13;47.21;101998.13;677187;29;1907;-85
2024/01/25 00:39:54;;;;;;;9.88;3.40;;;;;;;13.06;47.37;101985.63;677213;29;1305;-84
2024/01/25 00:40:15;;;;;;;21.20;3.80;;;;;;;13.24;47.30;102003.78;677334;29;1730;-84
2024/01/25 00:40:36;;;;;;;20.05;3.55;;;;;;;13.22;47.48;101997.59;682244;29;1301;-84
2024/01/25 00:40:57;;;;;;;21.55;3.78;;;;;;;13.22;47.65;102003.72;682718;28;1211;-84
2024/01/25 00:41:19;;;;;;;10.35;3.75;;;;;;;13.16;47.39;101993.91;674309;29;1485;-85
2024/01/25 00:41:41;;;;;;;11.90;3.53;;;;;;;13.14;47.66;102008.69;677130;29;1272;-84
2024/01/25 00:42:06;;;;;;;12.45;3.17;;;;;;;13.10;47.54;101993.66;676912;29;1591;-84
2024/01/25 00:42:29;;;;;;;9.45;3.00;;;;;;;13.09;47.82;102019.84;674602;29;1213;-84
2024/01/25 00:42:53;;;;;;;11.98;3.58;;;;;;;12.95;47.92;102009.72;674693;29;828;-84
2024/01/25 00:43:14;;;;;;;19.25;3.92;;;;;;;12.98;47.97;102008.94;671769;29;1784;-84
2024/01/25 00:43:35;;;;;;;19.25;4.38;;;;;;;13.07;47.59;102013.63;672545;29;1400;-84
2024/01/25 00:43:56;;;;;;;14.25;3.72;;;;;;;13.08;47.80;102004.97;674305;29;1709;-84
2024/01/25 00:44:17;;;;;;;10.80;3.40;;;;;;;13.17;47.68;102018.41;674363;29;1975;-85
2024/01/25 00:44:38;;;;;;;9.15;3.15;;;;;;;13.09;47.41;102002.38;674474;29;1527;-85
2024/01/25 00:44:59;;;;;;;9.10;3.25;;;;;;;13.11;47.69;101998.09;677226;29;1202;-84
2024/01/25 00:45:21;;;;;;;11.45;3.20;;;;;;;13.14;47.75;102016.56;676503;29;1575;-84
2024/01/25 00:45:42;;;;;;;18.42;3.80;;;;;;;13.08;47.54;101994.47;677071;29;1331;-85
2024/01/25 00:46:03;;;;;;;16.00;3.65;;;;;;;13.08;47.52;102005.84;676881;29;1599;-85
2024/01/25 00:46:24;;;;;;;16.98;3.28;;;;;;;13.13;47.31;102014.78;677213;29;1215;-84
2024/01/25 00:46:46;;;;;;;15.50;2.90;;;;;;;13.05;47.71;102008.34;678308;29;1656;-84
2024/01/25 00:47:08;;;;;;;17.70;3.15;;;;;;;13.10;47.55;102009.38;677665;29;1612;-85
2024/01/25 00:47:28;;;;;;;16.55;3.35;;;;;;;12.95;48.15;102004.47;676972;29;1242;-84
2024/01/25 00:47:50;;;;;;;14.23;3.65;;;;;;;12.94;47.78;102028.00;677769;29;1455;-85
2024/01/25 00:48:11;;;;;;;17.35;4.10;;;;;;;12.99;47.75;102016.88;674224;29;1583;-84
2024/01/25 00:48:32;;;;;;;19.42;3.70;;;;;;;13.05;47.90;102020.53;676493;29;1262;-84
2024/01/25 00:48:53;;;;;;;19.73;3.25;;;;;;;13.04;47.95;102016.16;677679;29;1324;-85
2024/01/25 00:49:14;;;;;;;16.02;3.00;;;;;;;13.09;48.05;102025.09;679066;29;1579;-85
2024/01/25 00:49:35;;;;;;;16.52;3.42;;;;;;;13.01;47.92;102006.44;677594;29;1274;-84
2024/01/25 00:49:56;;;;;;;13.05;3.47;;;;;;;13.07;47.68;102009.28;677711;29;1349;-84
2024/01/25 00:50:20;;;;;;;14.60;3.20;;;;;;;13.12;47.82;102018.22;679929;29;1609;-85
2024/01/25 00:50:41;;;;;;;9.48;3.38;;;;;;;13.07;47.73;102008.38;682947;28;1155;-84
2024/01/25 00:51:06;;;;;;;15.48;4.20;;;;;;;13.16;47.60;102014.88;682618;28;1487;-86
2024/01/25 00:51:27;;;;;;;14.10;3.85;;;;;;;13.04;47.47;102013.53;680370;29;1137;-85
2024/01/25 00:51:48;;;;;;;11.60;3.40;;;;;;;13.11;47.63;102016.44;678936;29;1334;-85
2024/01/25 00:52:09;;;;;;;7.60;2.53;;;;;;;13.15;47.43;102027.94;677384;29;1425;-85
2024/01/25 00:52:30;;;;;;;5.80;2.63;;;;;;;13.16;47.52;102029.72;675110;29;988;-84
2024/01/25 00:52:51;;;;;;;9.32;2.90;;;;;;;13.01;47.97;102020.44;675317;29;809;-84
2024/01/25 00:53:12;;;;;;;15.18;3.53;;;;;;;13.05;47.80;102021.44;676038;29;1719;-84
2024/01/25 00:53:33;;;;;;;17.95;3.55;;;;;;;13.04;48.06;102030.16;677204;29;1048;-84
2024/01/25 00:53:54;;;;;;;17.98;3.45;;;;;;;13.09;47.46;102015.47;677382;29;1354;-84
2024/01/25 00:54:15;;;;;;;15.63;3.60;;;;;;;13.04;47.60;102011.81;677427;29;1569;-84
2024/01/25 00:54:36;;;;;;;20.97;4.30;;;;;;;12.99;47.72;102021.22;676966;29;1668;-84
2024/01/25 00:54:57;;;;;;;20.67;4.43;;;;;;;13.02;47.95;102026.56;677735;29;820;-85
2024/01/25 00:55:18;;;;;;;17.42;4.00;;;;;;;13.02;47.73;102016.06;676127;29;1668;-85
2024/01/25 00:55:40;;;;;;;14.75;3.75;;;;;;;13.03;47.77;102010.00;680386;29;1014;-85
2024/01/25 00:56:01;;;;;;;9.30;3.30;;;;;;;13.09;47.68;102012.84;677710;29;1382;-84
2024/01/25 00:56:21;;;;;;;9.47;3.40;;;;;;;13.16;47.31;102012.25;677282;29;1517;-84
2024/01/25 00:56:42;;;;;;;6.25;3.10;;;;;;;13.10;47.36;102008.53;674772;29;1035;-84
2024/01/25 00:57:03;;;;;;;12.35;4.00;;;;;;;13.06;47.53;102001.38;669678;29;1423;-84
2024/01/25 00:57:24;;;;;;;14.80;4.22;;;;;;;13.09;47.37;102012.84;672398;29;1041;-85
2024/01/25 00:57:45;;;;;;;17.95;4.32;;;;;;;13.00;47.62;102007.28;672545;29;797;-85
2024/01/25 00:58:06;;;;;;;19.23;4.10;;;;;;;13.05;47.66;102016.22;675284;29;1716;-84
2024/01/25 00:58:27;;;;;;;18.00;3.83;;;;;;;13.00;47.89;102005.56;677037;29;1526;-85
2024/01/25 00:59:34;;;;;;;12.30;3.63;;;;;;;13.06;47.57;102015.38;675147;29;763;-84
2024/01/25 01:00:14;;;;;;;15.82;3.78;;;;;;;12.87;47.60;102012.03;680542;28;1456;-85
2024/01/25 01:00:53;;;;;;;15.32;4.40;;;;;;;12.93;47.68;102008.78;687156;28;1705;-84
2024/01/25 01:01:22;;;;;;;13.60;3.92;;;;;;;12.83;47.87;102009.19;677357;29;2034;-84
2024/01/25 01:02:00;;;;;;;10.88;3.30;;;;;;;12.93;47.75;102015.69;680373;29;949;-85
2024/01/25 01:02:22;;;;;;;11.77;3.70;;;;;;;12.94;47.40;102012.28;679555;29;1471;-84
2024/01/25 01:02:44;;;;;;;11.85;4.00;;;;;;;12.78;47.37;102010.78;677626;29;1185;-85
2024/01/25 01:03:06;;;;;;;9.35;3.63;;;;;;;12.82;47.48;102004.81;674870;29;1520;-84
2024/01/25 01:03:26;;;;;;;6.47;3.35;;;;;;;12.79;47.81;102012.56;675409;29;1126;-85
2024/01/25 01:03:52;;;;;;;10.43;3.22;;;;;;;12.73;47.62;102013.22;677566;29;1123;-84
2024/01/25 01:04:13;;;;;;;14.50;3.55;;;;;;;12.70;48.00;102013.97;676239;29;1440;-85
2024/01/25 01:05:19;;;;;;;12.35;4.00;;;;;;;12.75;47.92;102011.53;677562;29;1248;-84
2024/01/25 01:05:54;;;;;;;14.60;3.65;;;;;;;12.73;48.12;102014.09;680305;29;1269;-85
2024/01/25 01:06:15;;;;;;;15.98;3.85;;;;;;;12.70;48.02;102015.69;678906;29;1700;-84
2024/01/25 01:06:36;;;;;;;17.58;3.55;;;;;;;12.69;48.09;102006.06;682944;29;1102;-84
2024/01/25 01:06:57;;;;;;;12.25;3.13;;;;;;;12.68;48.25;102006.91;675125;29;1205;-85
2024/01/25 01:07:18;;;;;;;11.45;3.58;;;;;;;12.77;47.98;102014.22;676706;29;1543;-85
2024/01/25 01:07:40;;;;;;;12.40;3.60;;;;;;;12.67;48.22;102010.34;677750;29;1278;-85
2024/01/25 01:08:01;;;;;;;15.45;3.90;;;;;;;12.69;48.18;102011.28;678585;29;1361;-83
2024/01/25 01:08:22;;;;;;;13.85;3.80;;;;;;;12.74;48.08;102004.53;677418;29;1573;-84
2024/01/25 01:08:43;;;;;;;13.13;4.07;;;;;;;12.79;48.07;102009.94;679741;29;1374;-85
2024/01/25 01:09:03;;;;;;;11.95;3.60;;;;;;;12.78;47.57;102011.66;677348;29;1488;-85
2024/01/25 01:09:24;;;;;;;10.53;3.03;;;;;;;12.76;47.83;102008.09;674823;29;1311;-84
2024/01/25 01:09:44;;;;;;;10.88;2.72;;;;;;;12.75;47.55;102006.31;680111;29;944;-85
2024/01/25 01:10:05;;;;;;;14.20;3.33;;;;;;;12.70;47.98;102003.50;677786;29;1617;-84
2024/01/25 01:10:26;;;;;;;14.98;3.70;;;;;;;12.74;47.82;102015.88;677485;29;1356;-85
2024/01/25 01:10:46;;;;;;;13.50;3.78;;;;;;;12.71;47.98;102020.09;682969;29;1309;-84
2024/01/25 01:11:07;;;;;;;9.77;3.35;;;;;;;12.65;47.89;102001.53;679356;29;1535;-84
2024/01/25 01:11:27;;;;;;;13.67;3.80;;;;;;;12.66;48.11;102016.44;677576;29;1011;-83
2024/01/25 01:11:50;;;;;;;12.55;4.07;;;;;;;12.67;48.24;102005.97;677727;29;871;-84
2024/01/25 01:12:12;;;;;;;18.50;4.97;;;;;;;12.59;48.24;102005.69;674678;29;1523;-84
2024/01/25 01:12:32;;;;;;;14.18;4.10;;;;;;;12.61;48.27;102003.16;675024;29;1606;-84
2024/01/25 01:12:54;;;;;;;18.02;4.10;;;;;;;12.73;47.79;102015.84;675051;29;854;-85
2024/01/25 01:13:14;;;;;;;14.05;3.67;;;;;;;12.59;48.20;102005.69;674819;29;1614;-85
2024/01/25 01:13:35;;;;;;;11.20;3.45;;;;;;;12.65;48.04;102006.78;675067;29;1104;-84
2024/01/25 01:13:55;;;;;;;6.43;3.00;;;;;;;12.56;48.17;102005.59;675156;29;781;-84
2024/01/25 01:14:16;;;;;;;4.70;2.50;;;;;;;12.60;47.95;102011.84;674881;29;1474;-85
2024/01/25 01:14:37;;;;;;;11.07;3.00;;;;;;;12.47;48.65;102015.66;672483;29;1271;-84
2024/01/25 01:14:57;;;;;;;12.00;3.20;;;;;;;12.55;48.68;102008.13;675062;29;1446;-85
2024/01/25 01:15:18;;;;;;;14.60;3.37;;;;;;;12.56;48.69;102016.06;675091;29;1601;-84
2024/01/25 01:15:39;;;;;;;11.23;3.38;;;;;;;12.54;48.70;102012.47;675113;29;988;-84
2024/01/25 01:15:59;;;;;;;11.35;3.50;;;;;;;12.54;48.42;102022.94;675184;29;800;-85
2024/01/25 01:16:20;;;;;;;11.05;3.20;;;;;;;12.47;48.93;102018.28;674517;29;1532;-85
2024/01/25 01:16:41;;;;;;;14.03;3.60;;;;;;;12.52;48.69;102006.28;680374;29;1219;-86
2024/01/25 01:17:01;;;;;;;12.60;3.15;;;;;;;12.58;48.43;102009.16;678938;29;1336;-85
2024/01/25 01:17:22;;;;;;;10.13;3.17;;;;;;;12.56;48.82;102010.84;677471;29;1477;-84
2024/01/25 01:17:42;;;;;;;9.20;2.90;;;;;;;12.61;48.50;102006.66;677645;29;1153;-84
2024/01/25 01:18:05;;;;;;;12.50;3.47;;;;;;;12.68;48.12;102018.28;677362;29;1467;-84
2024/01/25 01:18:25;;;;;;;14.13;3.42;;;;;;;12.59;48.74;102021.41;674989;29;1317;-85
2024/01/25 01:18:46;;;;;;;11.60;3.22;;;;;;;12.64;48.43;102013.75;680108;29;745;-84
2024/01/25 01:19:07;;;;;;;8.57;2.93;;;;;;;12.69;48.23;102027.91;675373;29;1427;-85
2024/01/25 01:19:27;;;;;;;7.40;3.30;;;;;;;12.63;48.46;102016.28;679640;29;1906;-84
2024/01/25 01:19:48;;;;;;;6.55;3.28;;;;;;;12.63;48.53;102017.19;677732;29;778;-84
2024/01/25 01:20:09;;;;;;;9.13;3.28;;;;;;;12.57;48.25;102019.56;676498;29;1581;-84
2024/01/25 01:20:30;;;;;;;11.52;3.72;;;;;;;12.43;48.81;102025.13;675074;29;987;-84
2024/01/25 01:20:51;;;;;;;11.27;3.60;;;;;;;12.45;48.64;102019.97;675137;29;1227;-85
2024/01/25 01:21:11;;;;;;;8.23;3.42;;;;;;;12.51;48.91;102012.34;673503;29;1568;-84
2024/01/25 01:23:26;;;;;;;10.38;3.22;;;;;;;12.62;48.33;102007.56;681117;28;1462;-85
2024/01/25 01:23:46;;;;;;;13.27;3.60;;;;;;;12.74;47.90;102017.63;685579;28;872;-85
2024/01/25 01:24:07;;;;;;;11.18;3.67;;;;;;;12.69;47.99;102013.91;683971;28;1474;-85
2024/01/25 01:24:27;;;;;;;19.47;4.00;;;;;;;12.69;48.05;102016.53;682430;28;1156;-86
2024/01/25 01:24:48;;;;;;;20.88;4.00;;;;;;;12.70;48.30;102011.38;680271;29;1220;-84
2024/01/25 01:25:10;;;;;;;22.50;4.20;;;;;;;12.73;48.15;102013.22;675320;29;1532;-85
2024/01/25 01:25:30;;;;;;;11.50;3.42;;;;;;;12.65;48.31;102014.66;677625;29;1274;-85
2024/01/25 01:29:29;;;;;;;10.18;3.55;;;;;;;12.71;47.87;102014.84;683077;29;1033;-84
2024/01/25 01:29:49;;;;;;;13.10;3.78;;;;;;;12.66;48.00;102021.66;682926;29;918;-85
2024/01/25 01:30:10;;;;;;;12.75;3.55;;;;;;;12.64;48.08;102011.13;678220;29;1550;-84
2024/01/25 01:30:31;;;;;;;18.23;4.00;;;;;;;12.67;47.98;102018.22;675009;29;974;-84
2024/01/25 01:30:52;;;;;;;16.73;3.63;;;;;;;12.60;47.98;102017.97;674586;29;1187;-84
2024/01/25 01:31:12;;;;;;;18.00;3.60;;;;;;;12.63;48.08;102005.81;675974;29;1246;-84
2024/01/25 01:31:33;;;;;;;14.82;3.35;;;;;;;12.64;47.87;102005.00;680338;29;1137;-84
2024/01/25 01:31:54;;;;;;;15.40;3.30;;;;;;;12.58;48.30;102014.41;675070;29;1252;-84
2024/01/25 01:32:14;;;;;;;13.37;2.90;;;;;;;12.63;48.22;102011.03;674789;29;1453;-85
2024/01/25 01:32:35;;;;;;;18.80;3.58;;;;;;;12.69;48.15;102006.06;677527;29;1304;-84
2024/01/25 01:32:57;;;;;;;17.17;3.78;;;;;;;12.72;48.03;102017.53;677739;29;805;-85
2024/01/25 01:33:18;;;;;;;14.80;3.95;;;;;;;12.78;47.70;102021.25;676646;29;1445;-85
2024/01/25 01:33:38;;;;;;;7.05;2.80;;;;;;;12.76;47.63;102013.31;677577;29;1206;-83
2024/01/25 01:34:00;;;;;;;6.33;2.60;;;;;;;12.75;48.07;102016.78;675032;29;735;-85
2024/01/25 01:34:20;;;;;;;8.50;3.10;;;;;;;12.73;47.78;102021.94;676982;29;1258;-84
2024/01/25 01:34:41;;;;;;;10.80;3.47;;;;;;;12.80;47.92;102023.09;677628;29;1024;-84
2024/01/25 01:35:01;;;;;;;17.38;3.83;;;;;;;12.80;47.77;102025.72;677766;29;765;-84
2024/01/25 01:35:22;;;;;;;19.50;3.90;;;;;;;12.81;47.66;102027.50;679836;29;1610;-84
2024/01/25 01:35:48;;;;;;;19.67;4.10;;;;;;;12.84;47.64;102037.22;683109;28;1376;-84
2024/01/25 01:36:09;;;;;;;20.10;3.92;;;;;;;12.74;47.92;102030.72;685110;28;1443;-84
2024/01/25 01:36:29;;;;;;;16.00;3.80;;;;;;;12.69;47.95;102027.00;682822;29;1295;-85
2024/01/25 01:36:50;;;;;;;18.30;3.80;;;;;;;12.70;48.08;102024.47;680209;29;1196;-84
2024/01/25 01:37:10;;;;;;;11.80;3.57;;;;;;;12.73;48.04;102023.69;674692;29;1542;-84
2024/01/25 01:37:31;;;;;;;17.25;3.67;;;;;;;12.84;47.62;102034.59;679722;29;1419;-84
2024/01/25 01:37:51;;;;;;;13.87;3.37;;;;;;;12.79;48.16;102034.38;677700;29;1379;-84
2024/01/25 01:38:12;;;;;;;16.48;3.50;;;;;;;12.79;47.56;102023.91;681351;29;1456;-84
2024/01/25 01:38:33;;;;;;;11.02;3.20;;;;;;;12.80;47.68;102028.34;676991;29;1629;-85
2024/01/25 01:38:54;;;;;;;10.63;3.13;;;;;;;12.77;47.78;102028.19;675060;29;862;-84
2024/01/25 01:39:15;;;;;;;11.45;3.05;;;;;;;12.77;48.00;102035.19;672069;29;1466;-84
2024/01/25 01:39:35;;;;;;;10.93;3.00;;;;;;;12.79;47.96;102033.50;674935;29;1973;-84
2024/01/25 01:39:58;;;;;;;14.23;3.30;;;;;;;12.78;48.18;102037.84;677604;29;1180;-85
2024/01/25 01:40:18;;;;;;;13.90;3.33;;;;;;;12.77;48.03;102030.81;678039;29;1446;-85
2024/01/25 01:40:39;;;;;;;19.33;3.20;;;;;;;12.79;47.65;102034.38;677552;29;1178;-84
2024/01/25 01:41:00;;;;;;;17.45;3.20;;;;;;;12.82;47.65;102034.53;679868;29;1489;-84
2024/01/25 01:41:20;;;;;;;14.00;3.28;;;;;;;12.77;47.77;102028.19;677397;29;1535;-84
2024/01/25 01:41:41;;;;;;;9.50;3.50;;;;;;;12.86;47.71;102041.66;674850;29;1140;-84
2024/01/25 01:42:04;;;;;;;15.50;3.80;;;;;;;12.81;47.89;102037.97;676533;29;997;-85
2024/01/25 01:42:26;;;;;;;16.88;3.75;;;;;;;12.82;47.89;102045.00;680160;29;1598;-85
2024/01/25 01:42:46;;;;;;;12.30;3.58;;;;;;;12.75;48.01;102038.66;677731;29;876;-84
2024/01/25 01:43:07;;;;;;;12.40;3.42;;;;;;;12.70;48.01;102029.69;677806;29;1459;-85
2024/01/25 01:43:27;;;;;;;16.00;3.60;;;;;;;12.68;48.23;102044.47;680359;29;984;-84
2024/01/25 01:43:52;;;;;;;20.35;4.15;;;;;;;12.71;48.33;102046.28;677631;29;803;-84
2024/01/25 01:44:13;;;;;;;20.52;4.05;;;;;;;12.69;48.46;102043.63;677375;29;1449;-84
2024/01/25 01:44:34;;;;;;;14.93;3.80;;;;;;;12.76;48.39;102034.28;674970;29;1019;-84
2024/01/25 01:44:55;;;;;;;12.75;3.50;;;;;;;12.72;48.26;102032.38;675108;29;869;-85
2024/01/25 01:45:15;;;;;;;15.73;4.07;;;;;;;12.86;48.07;102040.78;672908;29;1755;-85
2024/01/25 01:45:36;;;;;;;12.00;3.88;;;;;;;12.85;48.20;102037.25;678448;29;1105;-85
2024/01/25 01:46:05;;;;;;;18.25;3.95;;;;;;;12.87;47.99;102038.22;677644;29;1216;-84
2024/01/25 01:46:36;;;;;;;15.23;3.22;;;;;;;12.94;47.70;102035.84;680250;29;1069;-85
2024/01/25 01:46:57;;;;;;;7.70;2.70;;;;;;;12.95;47.75;102041.16;682842;29;1278;-85
2024/01/25 01:47:19;;;;;;;9.48;3.20;;;;;;;12.82;47.96;102037.16;684557;28;1557;-84
2024/01/25 01:47:40;;;;;;;12.25;4.00;;;;;;;12.80;47.95;102038.81;682739;28;1273;-85
2024/01/25 01:48:00;;;;;;;14.40;3.88;;;;;;;12.80;48.11;102049.28;680275;29;1359;-84
2024/01/25 01:48:21;;;;;;;13.27;3.90;;;;;;;12.71;48.21;102035.81;677666;29;1543;-83